createdAt,value
2023-04-18T00:00:50.432Z,85.73
2023-04-18T00:03:22.735Z,85.66
2023-04-18T00:05:59.512Z,85.66
2023-04-18T00:08:32.612Z,85.79
2023-04-18T00:11:07.818Z,85.85
2023-04-18T00:13:41.027Z,85.85
2023-04-18T00:16:17.061Z,85.94
2023-04-18T00:18:51.397Z,86.03
2023-04-18T00:21:25.369Z,86.37
2023-04-18T00:23:59.917Z,86.22
2023-04-18T00:26:32.586Z,86.33
2023-04-18T00:29:06.281Z,86.54
2023-04-18T00:31:40.569Z,86.54
2023-04-18T00:34:13.997Z,86.48
2023-04-18T00:36:47.529Z,86.40
2023-04-18T00:39:20.959Z,86.48
2023-04-18T00:41:54.847Z,86.42
2023-04-18T00:44:32.632Z,86.85
2023-04-18T00:47:04.901Z,86.77
2023-04-18T00:49:38.536Z,87.00
2023-04-18T00:52:12.323Z,86.84
2023-04-18T00:54:45.947Z,87.09
2023-04-18T00:57:18.968Z,87.19
2023-04-18T00:59:53.999Z,87.07
2023-04-18T01:02:27.161Z,87.27
2023-04-18T01:05:00.257Z,87.47
2023-04-18T01:07:33.694Z,87.47
2023-04-18T01:10:07.469Z,87.45
2023-04-18T01:12:39.873Z,87.60
2023-04-18T01:15:16.538Z,87.70
2023-04-18T01:17:56.294Z,87.80
2023-04-18T01:20:27.563Z,87.85
2023-04-18T01:23:00.716Z,87.92
2023-04-18T01:25:33.070Z,88.33
2023-04-18T01:28:07.929Z,88.20
2023-04-18T01:30:40.555Z,88.25
2023-04-18T01:33:12.844Z,88.11
2023-04-18T01:35:44.083Z,88.45
2023-04-18T01:38:15.233Z,88.33
2023-04-18T01:40:46.967Z,88.12
2023-04-18T01:43:19.159Z,88.27
2023-04-18T01:45:50.916Z,88.09
2023-04-18T01:48:24.789Z,88.24
2023-04-18T01:50:57.542Z,88.15
2023-04-18T01:53:30.913Z,88.31
2023-04-18T01:56:02.036Z,88.21
2023-04-18T01:58:37.693Z,88.36
2023-04-18T02:01:12.416Z,88.11
2023-04-18T02:03:44.106Z,88.19
2023-04-18T02:06:17.301Z,88.37
2023-04-18T02:08:48.991Z,88.50
2023-04-18T02:11:21.532Z,88.41
2023-04-18T02:13:54.309Z,88.70
2023-04-18T02:16:25.176Z,88.54
2023-04-18T02:18:57.878Z,88.57
2023-04-18T02:21:30.546Z,88.52
2023-04-18T02:24:02.635Z,88.38
2023-04-18T02:26:35.792Z,88.27
2023-04-18T02:29:09.144Z,88.40
2023-04-18T02:31:43.956Z,88.48
2023-04-18T02:34:21.990Z,88.57
2023-04-18T02:36:55.749Z,88.74
2023-04-18T02:39:27.833Z,88.81
2023-04-18T02:42:00.071Z,88.75
2023-04-18T02:44:34.302Z,88.94
2023-04-18T02:47:07.748Z,88.68
2023-04-18T02:49:45.435Z,88.77
2023-04-18T02:52:17.843Z,88.76
2023-04-18T02:54:49.754Z,88.84
2023-04-18T02:57:24.614Z,88.77
2023-04-18T03:00:21.384Z,88.82
2023-04-18T03:03:21.037Z,88.82
2023-04-18T03:06:13.256Z,88.74
2023-04-18T03:08:47.046Z,88.70
2023-04-18T03:11:18.552Z,88.78
2023-04-18T03:13:50.852Z,88.81
2023-04-18T03:16:23.389Z,88.73
2023-04-18T03:18:56.106Z,88.66
2023-04-18T03:21:28.750Z,88.85
2023-04-18T03:24:01.949Z,88.76
2023-04-18T03:26:33.277Z,88.64
2023-04-18T03:29:07.669Z,88.74
2023-04-18T03:31:41.710Z,88.68
2023-04-18T03:34:13.805Z,88.84
2023-04-18T03:36:48.292Z,88.74
2023-04-18T03:39:23.538Z,88.71
2023-04-18T03:41:56.222Z,88.66
2023-04-18T03:44:35.776Z,88.69
2023-04-18T03:47:09.217Z,88.44
2023-04-18T03:49:42.606Z,88.44
2023-04-18T03:52:15.720Z,88.41
2023-04-18T03:54:48.379Z,88.63
2023-04-18T03:57:20.688Z,88.44
2023-04-18T03:59:52.923Z,88.42
2023-04-18T04:02:29.294Z,88.34
2023-04-18T04:05:03.410Z,88.36
2023-04-18T04:07:36.108Z,88.30
2023-04-18T04:10:12.468Z,88.21
2023-04-18T04:12:44.284Z,88.34
2023-04-18T04:15:17.324Z,88.38
2023-04-18T04:17:56.601Z,88.32
2023-04-18T04:20:33.301Z,88.36
2023-04-18T04:23:12.746Z,88.54
2023-04-18T04:25:46.429Z,88.58
2023-04-18T04:28:36.348Z,88.71
2023-04-18T04:31:10.726Z,88.44
2023-04-18T04:33:43.944Z,88.56
2023-04-18T04:36:24.320Z,88.56
2023-04-18T04:38:57.929Z,88.57
2023-04-18T04:41:40.248Z,88.65
2023-04-18T04:44:21.948Z,88.71
2023-04-18T04:46:54.903Z,88.51
2023-04-18T04:49:31.966Z,88.74
2023-04-18T04:52:03.840Z,88.56
2023-04-18T04:54:37.371Z,88.64
2023-04-18T04:57:12.026Z,88.46
2023-04-18T04:59:46.810Z,88.54
2023-04-18T05:02:25.285Z,88.37
2023-04-18T05:04:58.884Z,88.30
2023-04-18T05:07:32.477Z,88.31
2023-04-18T05:10:05.131Z,88.40
2023-04-18T05:12:37.914Z,88.08
2023-04-18T05:15:10.842Z,88.16
2023-04-18T05:17:43.460Z,88.40
2023-04-18T05:20:15.957Z,88.37
2023-04-18T05:22:47.272Z,88.19
2023-04-18T05:25:23.096Z,88.42
2023-04-18T05:27:55.329Z,88.22
2023-04-18T05:30:30.115Z,88.25
2023-04-18T05:33:02.080Z,88.08
2023-04-18T05:35:35.717Z,88.19
2023-04-18T05:38:07.297Z,87.79
2023-04-18T05:40:39.692Z,87.59
2023-04-18T05:43:11.538Z,87.69
2023-04-18T05:45:44.292Z,87.48
2023-04-18T05:48:16.294Z,87.59
2023-04-18T05:50:47.069Z,87.52
2023-04-18T05:53:18.673Z,87.66
2023-04-18T05:55:50.696Z,87.40
2023-04-18T05:58:22.840Z,87.33
2023-04-18T06:01:04.141Z,87.17
2023-04-18T06:03:37.420Z,87.13
2023-04-18T06:06:10.802Z,86.88
2023-04-18T06:08:49.326Z,86.87
2023-04-18T06:11:21.792Z,86.84
2023-04-18T06:13:55.922Z,86.62
2023-04-18T06:16:28.792Z,86.64
2023-04-18T06:19:02.559Z,86.26
2023-04-18T06:21:35.606Z,86.21
2023-04-18T06:24:08.861Z,85.99
2023-04-18T06:26:41.213Z,85.97
2023-04-18T06:29:13.932Z,85.70
2023-04-18T06:31:48.471Z,85.83
2023-04-18T06:34:21.463Z,85.81
2023-04-18T06:36:52.906Z,85.87
2023-04-18T06:39:24.248Z,85.49
2023-04-18T06:41:56.519Z,85.28
2023-04-18T06:44:33.634Z,85.43
2023-04-18T06:47:05.847Z,85.23
2023-04-18T06:49:38.140Z,85.10
2023-04-18T06:52:10.942Z,85.11
2023-04-18T06:54:42.371Z,85.16
2023-04-18T06:57:14.799Z,85.01
2023-04-18T06:59:49.322Z,84.35
2023-04-18T07:02:22.425Z,83.95
2023-04-18T07:04:55.147Z,83.53
2023-04-18T07:07:27.499Z,83.74
2023-04-18T07:09:59.681Z,83.85
2023-04-18T07:12:34.646Z,83.00
2023-04-18T07:15:10.388Z,82.14
2023-04-18T07:17:42.025Z,81.95
2023-04-18T07:20:14.617Z,82.64
2023-04-18T07:22:47.581Z,82.40
2023-04-18T07:25:24.964Z,81.98
2023-04-18T07:27:56.410Z,82.04
2023-04-18T07:30:31.227Z,81.61
2023-04-18T07:33:03.878Z,80.94
2023-04-18T07:35:36.755Z,80.52
2023-04-18T07:38:08.117Z,80.41
2023-04-18T07:40:39.857Z,80.59
2023-04-18T07:43:12.688Z,79.72
2023-04-18T07:45:45.280Z,80.21
2023-04-18T07:48:17.116Z,79.37
2023-04-18T07:50:50.768Z,79.43
2023-04-18T07:53:25.255Z,79.19
2023-04-18T07:55:56.291Z,78.83
2023-04-18T07:58:28.982Z,78.92
2023-04-18T08:01:01.345Z,78.78
2023-04-18T08:03:34.368Z,79.29
2023-04-18T08:06:11.678Z,78.96
2023-04-18T08:08:43.509Z,78.66
2023-04-18T08:11:14.262Z,78.81
2023-04-18T08:13:45.718Z,78.68
2023-04-18T08:16:19.512Z,78.62
2023-04-18T08:18:54.258Z,78.37
2023-04-18T08:21:27.217Z,78.20
2023-04-18T08:24:02.622Z,78.48
2023-04-18T08:26:34.608Z,78.17
2023-04-18T08:29:09.845Z,77.95
2023-04-18T08:31:42.158Z,77.69
2023-04-18T08:34:14.297Z,77.46
2023-04-18T08:36:46.404Z,77.79
2023-04-18T08:39:18.218Z,77.57
2023-04-18T08:41:59.586Z,77.45
2023-04-18T08:44:31.578Z,77.48
2023-04-18T08:47:04.764Z,77.24
2023-04-18T08:49:37.278Z,76.23
2023-04-18T08:52:14.782Z,75.98
2023-04-18T08:54:46.875Z,76.26
2023-04-18T08:57:27.703Z,76.00
2023-04-18T09:00:10.102Z,76.23
2023-04-18T09:02:45.005Z,76.06
2023-04-18T09:05:19.807Z,75.93
2023-04-18T09:07:53.571Z,75.19
2023-04-18T09:10:31.481Z,75.38
2023-04-18T09:13:06.140Z,75.24
2023-04-18T09:15:38.025Z,75.30
2023-04-18T09:18:13.265Z,74.92
2023-04-18T09:20:47.171Z,75.09
2023-04-18T09:23:27.032Z,75.00
2023-04-18T09:25:59.635Z,74.90
2023-04-18T09:28:32.815Z,74.32
2023-04-18T09:31:16.415Z,74.22
2023-04-18T09:33:57.197Z,74.08
2023-04-18T09:36:31.821Z,74.10
2023-04-18T09:39:08.327Z,73.03
2023-04-18T09:41:42.315Z,73.45
2023-04-18T09:44:15.927Z,73.27
2023-04-18T09:46:49.322Z,72.54
2023-04-18T09:49:22.233Z,72.55
2023-04-18T09:51:56.073Z,72.16
2023-04-18T09:54:29.150Z,72.00
2023-04-18T09:57:03.488Z,70.92
2023-04-18T10:00:00.202Z,70.69
2023-04-18T10:02:46.181Z,70.42
2023-04-18T10:05:24.131Z,70.27
2023-04-18T10:07:56.101Z,70.01
2023-04-18T10:10:28.333Z,69.73
2023-04-18T10:13:02.639Z,69.57
2023-04-18T10:15:35.091Z,70.21
2023-04-18T10:18:16.901Z,69.92
2023-04-18T10:20:49.933Z,69.57
2023-04-18T10:23:49.458Z,69.92
2023-04-18T10:26:23.702Z,69.25
2023-04-18T10:28:59.575Z,68.54
2023-04-18T10:31:40.031Z,69.10
2023-04-18T10:34:19.722Z,68.34
2023-04-18T10:37:11.495Z,68.55
2023-04-18T10:40:10.475Z,68.39
2023-04-18T10:43:02.980Z,67.63
2023-04-18T10:45:35.990Z,67.47
2023-04-18T10:48:30.115Z,66.58
2023-04-18T10:51:23.974Z,67.20
2023-04-18T10:53:58.349Z,67.58
2023-04-18T10:56:31.161Z,67.24
2023-04-18T10:59:05.178Z,67.28
2023-04-18T11:01:45.173Z,66.21
2023-04-18T11:04:19.619Z,66.39
2023-04-18T11:06:56.023Z,66.22
2023-04-18T11:09:28.903Z,66.48
2023-04-18T11:12:07.632Z,66.26
2023-04-18T11:14:47.712Z,65.52
2023-04-18T11:17:25.884Z,65.74
2023-04-18T11:20:08.977Z,65.86
2023-04-18T11:22:54.912Z,65.01
2023-04-18T11:25:35.333Z,64.69
2023-04-18T11:28:07.554Z,65.63
2023-04-18T11:30:41.559Z,65.33
2023-04-18T11:33:16.437Z,65.34
2023-04-18T11:35:49.933Z,64.65
2023-04-18T11:40:53.957Z,63.79
2023-04-18T11:43:27.928Z,62.73
2023-04-18T11:46:01.917Z,62.90
2023-04-18T11:48:39.337Z,62.93
2023-04-18T11:51:31.101Z,62.71
2023-04-18T11:54:05.490Z,62.08
2023-04-18T11:56:47.556Z,61.76
2023-04-18T11:59:21.419Z,60.65
2023-04-18T12:02:14.674Z,61.40
2023-04-18T12:04:55.618Z,62.37
2023-04-18T12:07:49.312Z,60.96
2023-04-18T12:10:29.113Z,61.31
2023-04-18T12:13:01.578Z,61.32
2023-04-18T12:15:35.697Z,61.40
2023-04-18T12:18:13.533Z,60.44
2023-04-18T12:20:55.879Z,59.41
2023-04-18T12:23:36.188Z,59.65
2023-04-18T12:26:08.979Z,58.52
2023-04-18T12:28:41.179Z,59.01
2023-04-18T12:31:13.153Z,58.50
2023-04-18T12:33:46.730Z,58.87
2023-04-18T12:36:22.915Z,58.77
2023-04-18T12:38:56.428Z,59.04
2023-04-18T12:41:27.553Z,59.47
2023-04-18T12:44:01.182Z,60.31
2023-04-18T12:46:38.571Z,59.72
2023-04-18T12:49:12.343Z,60.25
2023-04-18T12:51:47.206Z,59.44
2023-04-18T12:54:20.128Z,58.96
2023-04-18T12:56:52.972Z,59.12
2023-04-18T12:59:25.059Z,59.10
2023-04-18T13:01:57.813Z,59.26
2023-04-18T13:04:29.365Z,58.58
2023-04-18T13:07:02.714Z,58.63
2023-04-18T13:09:41.555Z,58.66
2023-04-18T13:12:13.631Z,58.53
2023-04-18T13:14:45.053Z,58.77
2023-04-18T13:17:17.386Z,57.96
2023-04-18T13:19:50.690Z,58.07
2023-04-18T13:22:24.468Z,58.14
2023-04-18T13:25:01.185Z,58.13
2023-04-18T13:27:34.561Z,56.85
2023-04-18T13:30:10.057Z,57.58
2023-04-18T13:32:46.532Z,56.15
2023-04-18T13:35:20.997Z,57.18
2023-04-18T13:37:52.556Z,59.82
2023-04-18T13:40:27.304Z,60.89
2023-04-18T13:43:04.617Z,61.33
2023-04-18T13:45:39.745Z,61.49
2023-04-18T13:48:12.862Z,62.08
2023-04-18T13:50:49.680Z,62.22
2023-04-18T13:53:24.284Z,62.52
2023-04-18T13:55:56.312Z,62.37
2023-04-18T13:58:26.573Z,61.67
2023-04-18T14:00:59.326Z,61.19
2023-04-18T14:03:36.901Z,61.76
2023-04-18T14:06:08.371Z,62.46
2023-04-18T14:08:42.263Z,63.16
2023-04-18T14:11:22.440Z,63.44
2023-04-18T14:13:58.190Z,63.98
2023-04-18T14:16:31.080Z,64.42
2023-04-18T14:19:06.846Z,64.63
2023-04-18T14:21:39.614Z,64.82
2023-04-18T14:24:16.198Z,65.21
2023-04-18T14:26:52.915Z,64.64
2023-04-18T14:29:31.078Z,64.85
2023-04-18T14:32:05.652Z,65.50
2023-04-18T14:34:40.861Z,65.66
2023-04-18T14:37:15.538Z,65.83
2023-04-18T14:39:48.241Z,65.94
2023-04-18T14:42:23.711Z,65.47
2023-04-18T14:44:58.550Z,65.26
2023-04-18T14:47:35.897Z,65.66
2023-04-18T14:50:12.343Z,65.91
2023-04-18T14:52:46.053Z,66.04
2023-04-18T14:55:22.652Z,65.85
2023-04-18T14:57:59.969Z,66.19
2023-04-18T15:00:31.938Z,66.02
2023-04-18T15:03:11.340Z,65.82
2023-04-18T15:05:48.696Z,65.91
2023-04-18T15:08:21.879Z,65.57
2023-04-18T15:10:58.711Z,65.44
2023-04-18T15:13:31.450Z,65.70
2023-04-18T15:16:02.701Z,65.84
2023-04-18T15:18:37.756Z,65.88
2023-04-18T15:21:10.738Z,65.85
2023-04-18T15:23:42.718Z,65.72
2023-04-18T15:26:15.930Z,65.99
2023-04-18T15:28:51.115Z,66.17
2023-04-18T15:31:24.167Z,66.01
2023-04-18T15:33:59.636Z,66.52
2023-04-18T15:36:35.457Z,66.86
2023-04-18T15:39:09.660Z,67.11
2023-04-18T15:41:43.765Z,67.45
2023-04-18T15:44:16.620Z,67.61
2023-04-18T15:46:50.834Z,67.84
2023-04-18T15:49:33.000Z,67.96
2023-04-18T15:52:09.288Z,67.76
2023-04-18T15:54:47.693Z,68.00
2023-04-18T15:57:23.024Z,68.20
2023-04-18T15:59:58.896Z,68.08
2023-04-18T16:02:36.057Z,68.17
2023-04-18T16:05:11.729Z,68.38
2023-04-18T16:07:45.407Z,68.67
2023-04-18T16:10:20.692Z,69.15
2023-04-18T16:12:56.888Z,69.28
2023-04-18T16:15:41.885Z,69.66
2023-04-18T16:18:17.597Z,70.09
2023-04-18T16:20:50.978Z,70.55
2023-04-18T16:23:24.194Z,70.70
2023-04-18T16:25:58.691Z,70.90
2023-04-18T16:28:31.574Z,71.04
2023-04-18T16:31:02.725Z,71.36
2023-04-18T16:33:40.268Z,71.86
2023-04-18T16:36:20.228Z,72.25
2023-04-18T16:38:53.199Z,72.46
2023-04-18T16:41:27.741Z,72.58
2023-04-18T16:44:03.104Z,72.78
2023-04-18T16:46:36.184Z,72.88
2023-04-18T16:49:08.683Z,73.10
2023-04-18T16:51:43.336Z,73.18
2023-04-18T16:54:16.757Z,73.47
2023-04-18T16:56:49.501Z,73.65
2023-04-18T16:59:21.382Z,73.77
2023-04-18T17:01:58.296Z,73.98
2023-04-18T17:04:30.422Z,74.15
2023-04-18T17:07:05.252Z,74.29
2023-04-18T17:09:37.970Z,74.36
2023-04-18T17:12:17.952Z,74.40
2023-04-18T17:14:56.141Z,74.67
2023-04-18T17:17:44.378Z,74.76
2023-04-18T17:20:18.744Z,74.88
2023-04-18T17:22:55.019Z,75.02
2023-04-18T17:25:27.096Z,75.24
2023-04-18T17:28:06.358Z,75.40
2023-04-18T17:30:44.737Z,75.47
2023-04-18T17:33:27.260Z,75.74
2023-04-18T17:36:04.325Z,75.75
2023-04-18T17:38:41.345Z,75.89
2023-04-18T17:41:18.589Z,76.05
2023-04-18T17:43:54.915Z,75.99
2023-04-18T17:46:26.260Z,76.19
2023-04-18T17:49:00.033Z,76.37
2023-04-18T17:51:35.982Z,76.44
2023-04-18T17:54:15.187Z,76.59
2023-04-18T17:56:52.258Z,76.74
2023-04-18T17:59:24.540Z,76.82
2023-04-18T18:01:57.456Z,77.01
2023-04-18T18:04:32.512Z,77.16
2023-04-18T18:07:07.200Z,77.31
2023-04-18T18:09:39.088Z,77.35
2023-04-18T18:12:12.172Z,77.50
2023-04-18T18:14:44.185Z,77.49
2023-04-18T18:17:23.728Z,77.59
2023-04-18T18:19:59.907Z,77.84
2023-04-18T18:22:48.692Z,77.98
2023-04-18T18:25:22.126Z,78.00
2023-04-18T18:27:56.932Z,78.09
2023-04-18T18:30:30.862Z,78.22
2023-04-18T18:33:03.774Z,78.43
2023-04-18T18:35:37.213Z,78.45
2023-04-18T18:38:08.859Z,78.39
2023-04-18T18:40:40.603Z,78.62
2023-04-18T18:43:14.792Z,78.61
2023-04-18T18:45:49.291Z,78.79
2023-04-18T18:48:21.729Z,78.88
2023-04-18T18:50:56.025Z,79.00
2023-04-18T18:53:43.514Z,79.03
2023-04-18T18:56:15.756Z,79.01
2023-04-18T18:58:47.560Z,79.14
2023-04-18T19:01:19.986Z,79.11
2023-04-18T19:03:53.008Z,79.30
2023-04-18T19:06:23.608Z,79.41
2023-04-18T19:08:58.710Z,79.57
2023-04-18T19:11:35.745Z,79.62
2023-04-18T19:14:09.034Z,79.62
2023-04-18T19:16:42.750Z,79.42
2023-04-18T19:19:20.966Z,79.11
2023-04-18T19:21:58.875Z,78.72
2023-04-18T19:24:33.217Z,77.62
2023-04-18T19:27:09.385Z,77.33
2023-04-18T19:29:42.277Z,76.58
2023-04-18T19:32:16.303Z,75.95
2023-04-18T19:34:57.297Z,74.87
2023-04-18T19:37:29.002Z,73.26
2023-04-18T19:40:02.445Z,73.00
2023-04-18T19:42:38.188Z,72.09
2023-04-18T19:45:26.419Z,71.56
2023-04-18T19:47:59.184Z,71.64
2023-04-18T19:50:31.958Z,71.26
2023-04-18T19:53:03.471Z,71.07
2023-04-18T19:55:36.036Z,69.86
2023-04-18T19:58:09.515Z,68.63
2023-04-18T20:00:41.730Z,68.94
2023-04-18T20:03:20.066Z,68.15
2023-04-18T20:05:53.581Z,67.37
2023-04-18T20:08:26.379Z,66.80
2023-04-18T20:11:02.345Z,67.24
2023-04-18T20:13:34.905Z,67.51
2023-04-18T20:16:05.891Z,67.17
2023-04-18T20:18:41.157Z,67.26
2023-04-18T20:21:16.967Z,67.59
2023-04-18T20:23:50.540Z,67.20
2023-04-18T20:26:22.026Z,67.33
2023-04-18T20:28:53.606Z,67.47
2023-04-18T20:31:25.022Z,68.09
2023-04-18T20:33:58.296Z,68.16
2023-04-18T20:36:31.133Z,67.95
2023-04-18T20:39:05.986Z,68.22
2023-04-18T20:41:46.506Z,68.54
2023-04-18T20:44:22.476Z,68.46
2023-04-18T20:46:54.771Z,68.75
2023-04-18T20:49:29.456Z,69.03
2023-04-18T20:52:02.315Z,69.24
2023-04-18T20:54:34.827Z,69.47
2023-04-18T20:57:07.711Z,70.04
2023-04-18T20:59:41.114Z,70.39
2023-04-18T21:02:14.675Z,70.89
2023-04-18T21:04:48.963Z,71.01
2023-04-18T21:07:25.281Z,71.34
2023-04-18T21:09:59.207Z,71.60
2023-04-18T21:12:34.071Z,72.03
2023-04-18T21:15:07.428Z,72.22
2023-04-18T21:17:38.572Z,72.47
2023-04-18T21:20:15.073Z,72.60
2023-04-18T21:22:46.764Z,72.79
2023-04-18T21:25:21.764Z,72.52
2023-04-18T21:27:55.219Z,72.52
2023-04-18T21:30:27.799Z,72.81
2023-04-18T21:33:00.533Z,72.79
2023-04-18T21:35:33.125Z,72.97
2023-04-18T21:38:12.752Z,73.05
2023-04-18T21:40:45.432Z,72.77
2023-04-18T21:43:26.769Z,72.93
2023-04-18T21:46:02.407Z,72.88
2023-04-18T21:48:33.207Z,72.94
2023-04-18T21:51:04.621Z,73.04
2023-04-18T21:53:36.976Z,72.88
2023-04-18T21:56:15.457Z,72.81
2023-04-18T21:58:49.816Z,72.81
2023-04-18T22:01:21.207Z,72.58
2023-04-18T22:03:56.048Z,72.62
2023-04-18T22:06:30.205Z,72.81
2023-04-18T22:09:06.077Z,73.02
2023-04-18T22:11:39.420Z,72.73
2023-04-18T22:14:16.264Z,72.66
2023-04-18T22:16:51.421Z,72.57
2023-04-18T22:19:41.632Z,72.35
2023-04-18T22:22:17.059Z,72.40
2023-04-18T22:24:51.895Z,72.28
2023-04-18T22:27:23.930Z,72.14
2023-04-18T22:29:55.980Z,72.15
2023-04-18T22:32:44.274Z,71.99
2023-04-18T22:35:18.236Z,72.06
2023-04-18T22:37:55.294Z,71.78
2023-04-18T22:40:27.642Z,71.52
2023-04-18T22:43:00.446Z,71.36
2023-04-18T22:45:34.041Z,71.49
2023-04-18T22:48:11.421Z,71.28
2023-04-18T22:50:44.473Z,71.14
2023-04-18T22:53:18.555Z,70.88
2023-04-18T22:55:52.946Z,70.99
2023-04-18T22:58:25.696Z,70.98
2023-04-18T23:00:59.484Z,71.08
2023-04-18T23:03:34.969Z,71.01
2023-04-18T23:06:10.848Z,71.12
2023-04-18T23:08:42.676Z,71.20
2023-04-18T23:11:14.620Z,71.26
2023-04-18T23:13:46.117Z,71.23
2023-04-18T23:16:19.024Z,71.22
2023-04-18T23:18:54.426Z,71.35
2023-04-18T23:21:28.271Z,71.32
2023-04-18T23:24:02.354Z,71.53
2023-04-18T23:26:36.993Z,71.69
2023-04-18T23:29:09.148Z,71.91
2023-04-18T23:31:41.796Z,71.83
2023-04-18T23:34:14.858Z,71.72
2023-04-18T23:36:48.784Z,71.83
2023-04-18T23:39:22.116Z,72.12
2023-04-18T23:41:54.953Z,72.01
2023-04-18T23:44:27.766Z,72.10
2023-04-18T23:46:59.867Z,72.26
2023-04-18T23:49:31.823Z,72.13
2023-04-18T23:52:04.839Z,72.22
2023-04-18T23:54:37.512Z,72.29
2023-04-18T23:57:10.063Z,72.51
2023-04-18T23:59:41.907Z,72.50
